sensor_id;sensor_type;location;lat;lon;timestamp;temperature;humidity
53695;DHT22;39588;51.124;7.190;2023-09-12T00:01:09;21.50;99.90
53695;DHT22;39588;51.124;7.190;2023-09-12T00:03:35;21.50;99.90
53695;DHT22;39588;51.124;7.190;2023-09-12T00:06:02;21.40;99.90
53695;DHT22;39588;51.124;7.190;2023-09-12T00:08:29;21.40;99.90
53695;DHT22;39588;51.124;7.190;2023-09-12T00:11:02;21.40;99.90
53695;DHT22;39588;51.124;7.190;2023-09-12T00:13:28;21.30;99.90
53695;DHT22;39588;51.124;7.190;2023-09-12T00:15:54;21.30;99.90
53695;DHT22;39588;51.124;7.190;2023-09-12T00:18:20;21.30;99.90
53695;DHT22;39588;51.124;7.190;2023-09-12T00:25:37;21.30;99.90
53695;DHT22;39588;51.124;7.190;2023-09-12T00:30:29;21.30;99.90
53695;DHT22;39588;51.124;7.190;2023-09-12T00:32:55;21.20;99.90
53695;DHT22;39588;51.124;7.190;2023-09-12T00:35:20;21.20;99.90
53695;DHT22;39588;51.124;7.190;2023-09-12T00:49:58;21.20;99.90
53695;DHT22;39588;51.124;7.190;2023-09-12T00:52:25;21.20;99.90
53695;DHT22;39588;51.124;7.190;2023-09-12T00:54:52;21.20;99.90
53695;DHT22;39588;51.124;7.190;2023-09-12T00:57:18;21.20;99.90
53695;DHT22;39588;51.124;7.190;2023-09-12T01:04:37;21.10;99.90
53695;DHT22;39588;51.124;7.190;2023-09-12T01:07:03;21.10;99.90
53695;DHT22;39588;51.124;7.190;2023-09-12T01:09:30;21.10;99.90
53695;DHT22;39588;51.124;7.190;2023-09-12T01:11:56;21.00;99.90
53695;DHT22;39588;51.124;7.190;2023-09-12T01:14:22;21.00;99.90
53695;DHT22;39588;51.124;7.190;2023-09-12T01:16:48;21.00;99.90
53695;DHT22;39588;51.124;7.190;2023-09-12T01:19:14;20.90;99.90
53695;DHT22;39588;51.124;7.190;2023-09-12T01:27:34;20.80;99.90
53695;DHT22;39588;51.124;7.190;2023-09-12T01:30:05;20.80;99.90
53695;DHT22;39588;51.124;7.190;2023-09-12T01:32:33;20.70;99.90
53695;DHT22;39588;51.124;7.190;2023-09-12T01:35:00;20.70;99.90
53695;DHT22;39588;51.124;7.190;2023-09-12T01:39:52;20.50;99.90
53695;DHT22;39588;51.124;7.190;2023-09-12T01:42:20;20.60;99.90
53695;DHT22;39588;51.124;7.190;2023-09-12T01:44:47;20.60;99.90
53695;DHT22;39588;51.124;7.190;2023-09-12T01:47:15;20.60;99.90
53695;DHT22;39588;51.124;7.190;2023-09-12T01:49:45;20.40;99.90
53695;DHT22;39588;51.124;7.190;2023-09-12T01:52:13;20.60;99.90
53695;DHT22;39588;51.124;7.190;2023-09-12T01:54:41;20.60;99.90
53695;DHT22;39588;51.124;7.190;2023-09-12T01:57:07;20.60;99.90
53695;DHT22;39588;51.124;7.190;2023-09-12T01:59:33;20.50;99.90
53695;DHT22;39588;51.124;7.190;2023-09-12T02:01:59;20.50;99.90
53695;DHT22;39588;51.124;7.190;2023-09-12T02:04:25;20.50;99.90
53695;DHT22;39588;51.124;7.190;2023-09-12T02:06:50;20.50;99.90
53695;DHT22;39588;51.124;7.190;2023-09-12T02:16:36;20.50;99.90
53695;DHT22;39588;51.124;7.190;2023-09-12T02:19:06;20.40;99.90
53695;DHT22;39588;51.124;7.190;2023-09-12T02:21:32;20.20;99.90
53695;DHT22;39588;51.124;7.190;2023-09-12T02:23:57;20.20;99.90
53695;DHT22;39588;51.124;7.190;2023-09-12T02:26:24;20.10;99.90
53695;DHT22;39588;51.124;7.190;2023-09-12T02:31:16;20.00;99.90
53695;DHT22;39588;51.124;7.190;2023-09-12T02:33:42;20.00;99.90
53695;DHT22;39588;51.124;7.190;2023-09-12T02:36:07;20.10;99.90
53695;DHT22;39588;51.124;7.190;2023-09-12T02:40:59;20.10;99.90
53695;DHT22;39588;51.124;7.190;2023-09-12T02:50:44;20.00;99.90
53695;DHT22;39588;51.124;7.190;2023-09-12T02:53:10;20.00;99.90
53695;DHT22;39588;51.124;7.190;2023-09-12T02:55:39;20.00;99.90
53695;DHT22;39588;51.124;7.190;2023-09-12T02:58:06;19.90;99.90
53695;DHT22;39588;51.124;7.190;2023-09-12T03:00:32;19.90;99.90
53695;DHT22;39588;51.124;7.190;2023-09-12T03:05:23;19.80;99.90
53695;DHT22;39588;51.124;7.190;2023-09-12T03:07:49;19.80;99.90
53695;DHT22;39588;51.124;7.190;2023-09-12T03:10:14;19.80;99.90
53695;DHT22;39588;51.124;7.190;2023-09-12T03:12:40;19.80;99.90
53695;DHT22;39588;51.124;7.190;2023-09-12T03:17:32;19.70;99.90
53695;DHT22;39588;51.124;7.190;2023-09-12T03:22:25;19.70;99.90
53695;DHT22;39588;51.124;7.190;2023-09-12T03:24:51;19.70;99.90
53695;DHT22;39588;51.124;7.190;2023-09-12T03:39:26;19.70;99.90
53695;DHT22;39588;51.124;7.190;2023-09-12T03:41:52;19.70;99.90
53695;DHT22;39588;51.124;7.190;2023-09-12T03:44:17;19.60;99.90
53695;DHT22;39588;51.124;7.190;2023-09-12T03:46:43;19.60;99.90
53695;DHT22;39588;51.124;7.190;2023-09-12T04:11:07;19.40;99.90
53695;DHT22;39588;51.124;7.190;2023-09-12T04:13:32;19.40;99.90
53695;DHT22;39588;51.124;7.190;2023-09-12T04:18:24;19.30;99.90
53695;DHT22;39588;51.124;7.190;2023-09-12T04:25:42;19.30;99.90
53695;DHT22;39588;51.124;7.190;2023-09-12T04:28:08;19.30;99.90
53695;DHT22;39588;51.124;7.190;2023-09-12T04:30:35;19.30;99.90
53695;DHT22;39588;51.124;7.190;2023-09-12T04:33:00;19.30;99.90
53695;DHT22;39588;51.124;7.190;2023-09-12T04:35:26;19.30;99.90
53695;DHT22;39588;51.124;7.190;2023-09-12T04:42:44;19.30;99.90
53695;DHT22;39588;51.124;7.190;2023-09-12T04:45:09;19.40;99.90
53695;DHT22;39588;51.124;7.190;2023-09-12T04:47:35;19.40;99.90
53695;DHT22;39588;51.124;7.190;2023-09-12T04:50:01;19.50;99.90
53695;DHT22;39588;51.124;7.190;2023-09-12T04:52:27;19.50;99.90
53695;DHT22;39588;51.124;7.190;2023-09-12T05:14:20;19.40;99.90
53695;DHT22;39588;51.124;7.190;2023-09-12T05:16:46;19.50;99.90
53695;DHT22;39588;51.124;7.190;2023-09-12T05:19:12;19.40;99.90
53695;DHT22;39588;51.124;7.190;2023-09-12T05:21:37;19.40;99.90
53695;DHT22;39588;51.124;7.190;2023-09-12T05:24:03;19.30;99.90
53695;DHT22;39588;51.124;7.190;2023-09-12T05:26:29;19.20;99.90
53695;DHT22;39588;51.124;7.190;2023-09-12T05:28:54;19.10;99.90
53695;DHT22;39588;51.124;7.190;2023-09-12T05:33:46;19.00;99.90
53695;DHT22;39588;51.124;7.190;2023-09-12T05:48:23;19.20;99.90
53695;DHT22;39588;51.124;7.190;2023-09-12T05:50:49;19.30;99.90
53695;DHT22;39588;51.124;7.190;2023-09-12T05:53:14;19.30;99.90
53695;DHT22;39588;51.124;7.190;2023-09-12T06:00:33;19.50;99.90
53695;DHT22;39588;51.124;7.190;2023-09-12T06:02:58;19.60;99.90
53695;DHT22;39588;51.124;7.190;2023-09-12T06:12:42;19.90;99.90
53695;DHT22;39588;51.124;7.190;2023-09-12T06:15:08;19.90;99.90
53695;DHT22;39588;51.124;7.190;2023-09-12T06:17:34;19.90;99.90
53695;DHT22;39588;51.124;7.190;2023-09-12T06:19:59;19.80;99.90
53695;DHT22;39588;51.124;7.190;2023-09-12T06:24:52;19.70;99.90
53695;DHT22;39588;51.124;7.190;2023-09-12T06:27:17;19.70;99.90
53695;DHT22;39588;51.124;7.190;2023-09-12T06:29:47;19.80;99.90
53695;DHT22;39588;51.124;7.190;2023-09-12T06:32:17;19.80;99.90
53695;DHT22;39588;51.124;7.190;2023-09-12T06:34:44;19.80;99.90
53695;DHT22;39588;51.124;7.190;2023-09-12T06:37:10;19.90;99.90
53695;DHT22;39588;51.124;7.190;2023-09-12T06:39:36;19.90;99.90
53695;DHT22;39588;51.124;7.190;2023-09-12T06:42:02;20.00;99.90
53695;DHT22;39588;51.124;7.190;2023-09-12T06:44:27;20.10;99.90
53695;DHT22;39588;51.124;7.190;2023-09-12T06:54:11;20.80;99.90
53695;DHT22;39588;51.124;7.190;2023-09-12T06:56:38;21.00;99.90
53695;DHT22;39588;51.124;7.190;2023-09-12T06:59:04;21.20;99.90
53695;DHT22;39588;51.124;7.190;2023-09-12T07:06:23;21.30;99.90
53695;DHT22;39588;51.124;7.190;2023-09-12T07:08:49;21.20;99.90
53695;DHT22;39588;51.124;7.190;2023-09-12T07:11:15;21.20;99.90
53695;DHT22;39588;51.124;7.190;2023-09-12T07:18:32;20.90;99.90
53695;DHT22;39588;51.124;7.190;2023-09-12T07:21:03;21.00;99.90
53695;DHT22;39588;51.124;7.190;2023-09-12T07:23:29;21.20;99.90
53695;DHT22;39588;51.124;7.190;2023-09-12T07:25:56;21.40;99.90
53695;DHT22;39588;51.124;7.190;2023-09-12T07:28:25;21.60;99.90
53695;DHT22;39588;51.124;7.190;2023-09-12T07:30:50;21.60;99.90
53695;DHT22;39588;51.124;7.190;2023-09-12T07:38:08;21.80;99.90
53695;DHT22;39588;51.124;7.190;2023-09-12T07:45:26;21.80;99.90
53695;DHT22;39588;51.124;7.190;2023-09-12T07:52:44;22.00;99.90
53695;DHT22;39588;51.124;7.190;2023-09-12T07:55:10;22.10;99.90
53695;DHT22;39588;51.124;7.190;2023-09-12T08:00:03;22.20;99.80
53695;DHT22;39588;51.124;7.190;2023-09-12T08:05:05;22.20;99.70
53695;DHT22;39588;51.124;7.190;2023-09-12T08:09:57;22.30;99.90
53695;DHT22;39588;51.124;7.190;2023-09-12T08:12:24;22.50;99.70
53695;DHT22;39588;51.124;7.190;2023-09-12T08:14:51;22.60;99.70
53695;DHT22;39588;51.124;7.190;2023-09-12T08:17:17;22.80;99.60
53695;DHT22;39588;51.124;7.190;2023-09-12T08:19:43;22.80;99.50
53695;DHT22;39588;51.124;7.190;2023-09-12T08:22:10;22.70;99.40
53695;DHT22;39588;51.124;7.190;2023-09-12T08:24:36;22.60;99.80
53695;DHT22;39588;51.124;7.190;2023-09-12T08:27:03;22.80;99.50
53695;DHT22;39588;51.124;7.190;2023-09-12T08:29:29;22.80;99.20
53695;DHT22;39588;51.124;7.190;2023-09-12T08:31:55;22.90;99.30
53695;DHT22;39588;51.124;7.190;2023-09-12T08:34:21;23.00;99.20
53695;DHT22;39588;51.124;7.190;2023-09-12T08:39:22;23.00;99.00
53695;DHT22;39588;51.124;7.190;2023-09-12T08:41:49;24.20;99.60
53695;DHT22;39588;51.124;7.190;2023-09-12T08:44:15;22.80;98.90
53695;DHT22;39588;51.124;7.190;2023-09-12T08:46:45;22.70;98.80
53695;DHT22;39588;51.124;7.190;2023-09-12T08:49:11;22.70;99.20
53695;DHT22;39588;51.124;7.190;2023-09-12T08:51:40;22.90;99.00
53695;DHT22;39588;51.124;7.190;2023-09-12T08:54:07;23.00;99.00
53695;DHT22;39588;51.124;7.190;2023-09-12T08:56:35;22.80;99.00
53695;DHT22;39588;51.124;7.190;2023-09-12T08:59:02;22.80;99.10
53695;DHT22;39588;51.124;7.190;2023-09-12T09:01:32;22.80;99.30
53695;DHT22;39588;51.124;7.190;2023-09-12T09:03:58;23.00;99.50
53695;DHT22;39588;51.124;7.190;2023-09-12T09:06:25;23.20;99.20
53695;DHT22;39588;51.124;7.190;2023-09-12T09:18:59;23.70;98.90
53695;DHT22;39588;51.124;7.190;2023-09-12T09:21:31;23.80;98.90
53695;DHT22;39588;51.124;7.190;2023-09-12T09:24:07;24.00;98.50
53695;DHT22;39588;51.124;7.190;2023-09-12T09:26:42;24.10;98.60
53695;DHT22;39588;51.124;7.190;2023-09-12T09:29:10;24.20;98.30
53695;DHT22;39588;51.124;7.190;2023-09-12T09:31:39;24.30;98.40
53695;DHT22;39588;51.124;7.190;2023-09-12T09:34:16;24.30;98.60
53695;DHT22;39588;51.124;7.190;2023-09-12T09:36:51;24.30;98.00
53695;DHT22;39588;51.124;7.190;2023-09-12T09:39:18;24.40;98.40
53695;DHT22;39588;51.124;7.190;2023-09-12T09:41:52;24.60;98.30
53695;DHT22;39588;51.124;7.190;2023-09-12T09:46:44;25.10;97.70
53695;DHT22;39588;51.124;7.190;2023-09-12T09:49:11;25.30;97.20
53695;DHT22;39588;51.124;7.190;2023-09-12T09:51:43;25.10;97.40
53695;DHT22;39588;51.124;7.190;2023-09-12T09:54:09;25.10;97.60
53695;DHT22;39588;51.124;7.190;2023-09-12T09:57:05;25.10;97.10
53695;DHT22;39588;51.124;7.190;2023-09-12T09:59:30;25.30;97.00
53695;DHT22;39588;51.124;7.190;2023-09-12T10:01:59;25.10;97.30
53695;DHT22;39588;51.124;7.190;2023-09-12T10:04:29;24.80;97.30
53695;DHT22;39588;51.124;7.190;2023-09-12T10:06:57;24.70;97.50
53695;DHT22;39588;51.124;7.190;2023-09-12T10:09:26;24.50;97.40
53695;DHT22;39588;51.124;7.190;2023-09-12T10:14:20;24.30;97.30
53695;DHT22;39588;51.124;7.190;2023-09-12T10:16:47;24.30;97.70
53695;DHT22;39588;51.124;7.190;2023-09-12T10:19:20;24.40;97.50
53695;DHT22;39588;51.124;7.190;2023-09-12T10:21:54;24.60;97.40
53695;DHT22;39588;51.124;7.190;2023-09-12T10:24:25;24.80;97.20
53695;DHT22;39588;51.124;7.190;2023-09-12T10:26:53;25.10;97.10
53695;DHT22;39588;51.124;7.190;2023-09-12T10:29:20;25.50;96.80
53695;DHT22;39588;51.124;7.190;2023-09-12T10:31:48;25.80;96.10
53695;DHT22;39588;51.124;7.190;2023-09-12T10:34:15;26.00;96.20
53695;DHT22;39588;51.124;7.190;2023-09-12T10:36:42;25.80;96.20
53695;DHT22;39588;51.124;7.190;2023-09-12T10:39:09;25.70;96.40
53695;DHT22;39588;51.124;7.190;2023-09-12T10:41:39;25.80;96.10
53695;DHT22;39588;51.124;7.190;2023-09-12T10:44:16;25.50;96.40
53695;DHT22;39588;51.124;7.190;2023-09-12T10:46:41;25.30;96.70
53695;DHT22;39588;51.124;7.190;2023-09-12T10:49:09;25.20;96.60
53695;DHT22;39588;51.124;7.190;2023-09-12T10:51:42;25.20;96.80
53695;DHT22;39588;51.124;7.190;2023-09-12T10:54:12;25.40;96.70
53695;DHT22;39588;51.124;7.190;2023-09-12T10:56:38;25.60;96.80
53695;DHT22;39588;51.124;7.190;2023-09-12T11:01:32;25.70;96.40
53695;DHT22;39588;51.124;7.190;2023-09-12T11:03:58;25.60;96.40
53695;DHT22;39588;51.124;7.190;2023-09-12T11:06:31;25.60;96.30
53695;DHT22;39588;51.124;7.190;2023-09-12T11:11:42;26.10;95.70
53695;DHT22;39588;51.124;7.190;2023-09-12T11:14:09;26.30;95.70
53695;DHT22;39588;51.124;7.190;2023-09-12T11:16:35;26.30;95.60
53695;DHT22;39588;51.124;7.190;2023-09-12T11:19:22;26.20;95.70
53695;DHT22;39588;51.124;7.190;2023-09-12T11:21:54;25.70;95.60
53695;DHT22;39588;51.124;7.190;2023-09-12T11:24:23;25.50;95.80
53695;DHT22;39588;51.124;7.190;2023-09-12T11:29:21;25.50;95.80
53695;DHT22;39588;51.124;7.190;2023-09-12T11:31:58;25.60;96.10
53695;DHT22;39588;51.124;7.190;2023-09-12T11:34:28;25.80;96.00
53695;DHT22;39588;51.124;7.190;2023-09-12T11:39:24;25.70;96.00
53695;DHT22;39588;51.124;7.190;2023-09-12T11:41:55;25.70;96.30
53695;DHT22;39588;51.124;7.190;2023-09-12T11:44:21;25.80;96.40
53695;DHT22;39588;51.124;7.190;2023-09-12T11:46:48;25.70;96.30
53695;DHT22;39588;51.124;7.190;2023-09-12T11:49:15;25.70;96.20
53695;DHT22;39588;51.124;7.190;2023-09-12T11:54:21;25.70;96.10
53695;DHT22;39588;51.124;7.190;2023-09-12T11:56:49;25.60;96.20
53695;DHT22;39588;51.124;7.190;2023-09-12T11:59:22;25.60;95.90
53695;DHT22;39588;51.124;7.190;2023-09-12T12:01:48;25.50;96.10
53695;DHT22;39588;51.124;7.190;2023-09-12T12:04:14;25.70;95.90
53695;DHT22;39588;51.124;7.190;2023-09-12T12:06:40;25.90;95.90
53695;DHT22;39588;51.124;7.190;2023-09-12T12:09:06;25.90;95.50
53695;DHT22;39588;51.124;7.190;2023-09-12T12:11:32;26.00;95.40
53695;DHT22;39588;51.124;7.190;2023-09-12T12:14:08;25.90;95.20
53695;DHT22;39588;51.124;7.190;2023-09-12T12:21:26;25.40;96.00
53695;DHT22;39588;51.124;7.190;2023-09-12T12:24:00;25.60;95.90
53695;DHT22;39588;51.124;7.190;2023-09-12T12:28:52;25.60;95.60
53695;DHT22;39588;51.124;7.190;2023-09-12T12:31:19;25.60;96.00
53695;DHT22;39588;51.124;7.190;2023-09-12T12:33:48;25.80;95.90
53695;DHT22;39588;51.124;7.190;2023-09-12T12:36:14;25.70;95.50
53695;DHT22;39588;51.124;7.190;2023-09-12T12:38:40;25.70;95.50
53695;DHT22;39588;51.124;7.190;2023-09-12T12:41:09;25.80;95.40
53695;DHT22;39588;51.124;7.190;2023-09-12T12:43:34;25.80;95.50
53695;DHT22;39588;51.124;7.190;2023-09-12T12:48:32;25.90;95.60
53695;DHT22;39588;51.124;7.190;2023-09-12T12:53:41;25.50;95.50
53695;DHT22;39588;51.124;7.190;2023-09-12T12:56:07;25.40;95.70
53695;DHT22;39588;51.124;7.190;2023-09-12T12:58:33;25.40;95.90
53695;DHT22;39588;51.124;7.190;2023-09-12T13:03:26;25.50;96.00
53695;DHT22;39588;51.124;7.190;2023-09-12T13:13:10;25.10;96.20
53695;DHT22;39588;51.124;7.190;2023-09-12T13:15:36;25.10;95.80
53695;DHT22;39588;51.124;7.190;2023-09-12T13:22:55;25.30;95.30
53695;DHT22;39588;51.124;7.190;2023-09-12T13:27:49;25.50;95.60
53695;DHT22;39588;51.124;7.190;2023-09-12T13:30:14;25.40;95.40
53695;DHT22;39588;51.124;7.190;2023-09-12T13:32:40;25.40;95.40
53695;DHT22;39588;51.124;7.190;2023-09-12T13:35:06;25.40;95.60
53695;DHT22;39588;51.124;7.190;2023-09-12T13:37:33;25.30;95.70
53695;DHT22;39588;51.124;7.190;2023-09-12T13:39:58;25.20;95.80
53695;DHT22;39588;51.124;7.190;2023-09-12T13:42:24;25.20;95.90
53695;DHT22;39588;51.124;7.190;2023-09-12T13:49:49;25.10;96.00
53695;DHT22;39588;51.124;7.190;2023-09-12T13:52:20;25.20;95.80
53695;DHT22;39588;51.124;7.190;2023-09-12T13:59:38;25.30;95.70
53695;DHT22;39588;51.124;7.190;2023-09-12T14:16:42;25.70;95.00
53695;DHT22;39588;51.124;7.190;2023-09-12T14:19:09;25.50;95.00
53695;DHT22;39588;51.124;7.190;2023-09-12T14:21:35;25.40;95.30
53695;DHT22;39588;51.124;7.190;2023-09-12T14:24:01;25.40;95.30
53695;DHT22;39588;51.124;7.190;2023-09-12T14:26:26;25.40;95.20
53695;DHT22;39588;51.124;7.190;2023-09-12T14:28:52;25.40;95.10
53695;DHT22;39588;51.124;7.190;2023-09-12T14:33:43;25.30;95.40
53695;DHT22;39588;51.124;7.190;2023-09-12T14:36:09;25.30;95.60
53695;DHT22;39588;51.124;7.190;2023-09-12T14:38:36;25.30;95.30
53695;DHT22;39588;51.124;7.190;2023-09-12T14:41:01;25.30;95.50
53695;DHT22;39588;51.124;7.190;2023-09-12T14:43:28;25.20;95.40
53695;DHT22;39588;51.124;7.190;2023-09-12T14:45:56;25.10;95.50
53695;DHT22;39588;51.124;7.190;2023-09-12T14:48:22;25.10;95.70
53695;DHT22;39588;51.124;7.190;2023-09-12T14:50:48;25.00;95.70
53695;DHT22;39588;51.124;7.190;2023-09-12T14:53:17;25.00;95.80
53695;DHT22;39588;51.124;7.190;2023-09-12T14:58:08;24.90;95.90
53695;DHT22;39588;51.124;7.190;2023-09-12T15:00:34;25.00;95.90
53695;DHT22;39588;51.124;7.190;2023-09-12T15:03:00;25.00;95.60
53695;DHT22;39588;51.124;7.190;2023-09-12T15:07:52;25.00;95.60
53695;DHT22;39588;51.124;7.190;2023-09-12T15:22:31;25.00;96.00
53695;DHT22;39588;51.124;7.190;2023-09-12T15:24:57;25.10;96.10
53695;DHT22;39588;51.124;7.190;2023-09-12T15:34:41;25.30;95.90
53695;DHT22;39588;51.124;7.190;2023-09-12T15:37:11;25.20;95.70
53695;DHT22;39588;51.124;7.190;2023-09-12T15:39:37;25.10;95.90
53695;DHT22;39588;51.124;7.190;2023-09-12T15:44:29;25.20;95.90
53695;DHT22;39588;51.124;7.190;2023-09-12T15:46:55;25.30;95.80
53695;DHT22;39588;51.124;7.190;2023-09-12T16:01:33;24.70;95.90
53695;DHT22;39588;51.124;7.190;2023-09-12T16:03:58;24.70;95.90
53695;DHT22;39588;51.124;7.190;2023-09-12T16:06:24;24.70;96.20
53695;DHT22;39588;51.124;7.190;2023-09-12T16:08:49;24.70;96.20
53695;DHT22;39588;51.124;7.190;2023-09-12T16:18:34;24.50;96.20
53695;DHT22;39588;51.124;7.190;2023-09-12T16:21:00;24.40;96.30
53695;DHT22;39588;51.124;7.190;2023-09-12T16:23:26;24.40;96.30
53695;DHT22;39588;51.124;7.190;2023-09-12T16:25:57;24.40;96.40
53695;DHT22;39588;51.124;7.190;2023-09-12T16:28:23;24.50;96.30
53695;DHT22;39588;51.124;7.190;2023-09-12T16:30:49;24.40;96.40
53695;DHT22;39588;51.124;7.190;2023-09-12T16:33:14;24.40;96.50
53695;DHT22;39588;51.124;7.190;2023-09-12T16:35:40;24.30;96.40
53695;DHT22;39588;51.124;7.190;2023-09-12T16:42:58;24.30;96.60
53695;DHT22;39588;51.124;7.190;2023-09-12T16:47:49;24.00;96.60
53695;DHT22;39588;51.124;7.190;2023-09-12T16:50:15;24.00;96.70
53695;DHT22;39588;51.124;7.190;2023-09-12T16:52:41;23.90;96.80
53695;DHT22;39588;51.124;7.190;2023-09-12T16:55:07;23.80;96.90
53695;DHT22;39588;51.124;7.190;2023-09-12T17:04:51;23.70;97.20
53695;DHT22;39588;51.124;7.190;2023-09-12T17:09:44;23.60;97.20
53695;DHT22;39588;51.124;7.190;2023-09-12T17:14:36;23.50;97.40
53695;DHT22;39588;51.124;7.190;2023-09-12T17:17:02;23.40;97.50
53695;DHT22;39588;51.124;7.190;2023-09-12T17:19:28;23.40;97.60
53695;DHT22;39588;51.124;7.190;2023-09-12T17:24:20;23.40;97.80
53695;DHT22;39588;51.124;7.190;2023-09-12T17:26:45;23.30;97.80
53695;DHT22;39588;51.124;7.190;2023-09-12T17:31:37;23.30;97.90
53695;DHT22;39588;51.124;7.190;2023-09-12T17:34:02;23.20;97.90
53695;DHT22;39588;51.124;7.190;2023-09-12T17:36:28;23.20;98.00
53695;DHT22;39588;51.124;7.190;2023-09-12T17:38:54;23.10;98.00
53695;DHT22;39588;51.124;7.190;2023-09-12T17:51:06;23.00;98.30
53695;DHT22;39588;51.124;7.190;2023-09-12T17:55:57;23.00;98.50
53695;DHT22;39588;51.124;7.190;2023-09-12T17:58:23;23.00;98.50
53695;DHT22;39588;51.124;7.190;2023-09-12T18:00:59;23.00;98.70
53695;DHT22;39588;51.124;7.190;2023-09-12T18:03:26;22.90;98.80
53695;DHT22;39588;51.124;7.190;2023-09-12T18:05:52;22.80;99.10
53695;DHT22;39588;51.124;7.190;2023-09-12T18:20:28;22.30;99.90
53695;DHT22;39588;51.124;7.190;2023-09-12T18:25:23;22.20;99.90
53695;DHT22;39588;51.124;7.190;2023-09-12T18:30:14;22.20;99.90
53695;DHT22;39588;51.124;7.190;2023-09-12T18:32:40;22.20;99.90
53695;DHT22;39588;51.124;7.190;2023-09-12T18:35:06;22.20;99.90
53695;DHT22;39588;51.124;7.190;2023-09-12T18:37:32;22.20;99.90
53695;DHT22;39588;51.124;7.190;2023-09-12T18:39:58;22.10;99.90
53695;DHT22;39588;51.124;7.190;2023-09-12T18:42:23;22.10;99.90
53695;DHT22;39588;51.124;7.190;2023-09-12T18:44:49;22.00;99.90
53695;DHT22;39588;51.124;7.190;2023-09-12T18:47:15;22.00;99.90
53695;DHT22;39588;51.124;7.190;2023-09-12T18:49:40;22.00;99.90
53695;DHT22;39588;51.124;7.190;2023-09-12T18:52:06;21.90;99.90
53695;DHT22;39588;51.124;7.190;2023-09-12T18:54:32;21.90;99.90
53695;DHT22;39588;51.124;7.190;2023-09-12T18:56:59;21.80;99.90
53695;DHT22;39588;51.124;7.190;2023-09-12T18:59:25;21.80;99.90
53695;DHT22;39588;51.124;7.190;2023-09-12T19:01:51;21.70;99.90
53695;DHT22;39588;51.124;7.190;2023-09-12T19:06:50;21.60;99.90
53695;DHT22;39588;51.124;7.190;2023-09-12T19:09:16;21.60;99.90
53695;DHT22;39588;51.124;7.190;2023-09-12T19:11:42;21.50;99.90
53695;DHT22;39588;51.124;7.190;2023-09-12T19:21:27;21.30;99.90
53695;DHT22;39588;51.124;7.190;2023-09-12T19:23:52;21.30;99.90
53695;DHT22;39588;51.124;7.190;2023-09-12T19:26:18;21.30;99.90
53695;DHT22;39588;51.124;7.190;2023-09-12T19:28:43;21.30;99.90
53695;DHT22;39588;51.124;7.190;2023-09-12T19:31:09;21.20;99.90
53695;DHT22;39588;51.124;7.190;2023-09-12T19:33:35;21.30;99.90
53695;DHT22;39588;51.124;7.190;2023-09-12T19:36:01;21.20;99.90
53695;DHT22;39588;51.124;7.190;2023-09-12T19:38:26;21.20;99.90
53695;DHT22;39588;51.124;7.190;2023-09-12T19:40:59;21.20;99.90
53695;DHT22;39588;51.124;7.190;2023-09-12T19:43:26;21.20;99.90
53695;DHT22;39588;51.124;7.190;2023-09-12T19:45:51;21.10;99.90
53695;DHT22;39588;51.124;7.190;2023-09-12T19:48:20;20.90;99.90
53695;DHT22;39588;51.124;7.190;2023-09-12T19:50:49;20.80;99.90
53695;DHT22;39588;51.124;7.190;2023-09-12T19:53:14;20.80;99.90
53695;DHT22;39588;51.124;7.190;2023-09-12T19:55:52;20.70;99.90
53695;DHT22;39588;51.124;7.190;2023-09-12T19:58:18;20.70;99.90
53695;DHT22;39588;51.124;7.190;2023-09-12T20:00:44;20.70;99.90
53695;DHT22;39588;51.124;7.190;2023-09-12T20:03:10;20.70;99.90
53695;DHT22;39588;51.124;7.190;2023-09-12T20:05:39;20.70;99.90
53695;DHT22;39588;51.124;7.190;2023-09-12T20:08:06;20.70;99.90
53695;DHT22;39588;51.124;7.190;2023-09-12T20:10:36;20.70;99.90
53695;DHT22;39588;51.124;7.190;2023-09-12T20:13:01;20.70;99.90
53695;DHT22;39588;51.124;7.190;2023-09-12T20:15:27;20.70;99.90
53695;DHT22;39588;51.124;7.190;2023-09-12T20:18:13;20.60;99.90
53695;DHT22;39588;51.124;7.190;2023-09-12T20:20:39;20.60;99.90
53695;DHT22;39588;51.124;7.190;2023-09-12T20:23:05;20.60;99.90
53695;DHT22;39588;51.124;7.190;2023-09-12T20:25:32;20.60;99.90
53695;DHT22;39588;51.124;7.190;2023-09-12T20:30:24;20.40;99.90
53695;DHT22;39588;51.124;7.190;2023-09-12T20:33:03;20.30;99.90
53695;DHT22;39588;51.124;7.190;2023-09-12T20:35:31;20.30;99.90
53695;DHT22;39588;51.124;7.190;2023-09-12T20:37:57;20.30;99.90
53695;DHT22;39588;51.124;7.190;2023-09-12T20:40:24;20.40;99.90
53695;DHT22;39588;51.124;7.190;2023-09-12T20:42:50;20.40;99.90
53695;DHT22;39588;51.124;7.190;2023-09-12T20:45:17;20.40;99.90
53695;DHT22;39588;51.124;7.190;2023-09-12T20:47:43;20.50;99.90
53695;DHT22;39588;51.124;7.190;2023-09-12T20:50:09;20.50;99.90
53695;DHT22;39588;51.124;7.190;2023-09-12T20:52:35;20.50;99.90
53695;DHT22;39588;51.124;7.190;2023-09-12T20:55:01;20.50;99.90
53695;DHT22;39588;51.124;7.190;2023-09-12T20:57:27;20.60;99.90
53695;DHT22;39588;51.124;7.190;2023-09-12T21:04:45;20.50;99.90
53695;DHT22;39588;51.124;7.190;2023-09-12T21:07:11;20.50;99.90
53695;DHT22;39588;51.124;7.190;2023-09-12T21:09:37;20.60;99.90
53695;DHT22;39588;51.124;7.190;2023-09-12T21:12:03;20.60;99.90
53695;DHT22;39588;51.124;7.190;2023-09-12T21:14:31;20.60;99.90
53695;DHT22;39588;51.124;7.190;2023-09-12T21:16:56;20.60;99.90
53695;DHT22;39588;51.124;7.190;2023-09-12T21:19:22;20.60;99.90
53695;DHT22;39588;51.124;7.190;2023-09-12T21:21:48;20.60;99.90
53695;DHT22;39588;51.124;7.190;2023-09-12T21:26:40;20.50;99.90
53695;DHT22;39588;51.124;7.190;2023-09-12T21:36:23;20.50;99.90
53695;DHT22;39588;51.124;7.190;2023-09-12T21:38:49;20.40;99.90
53695;DHT22;39588;51.124;7.190;2023-09-12T21:41:14;20.40;99.90
53695;DHT22;39588;51.124;7.190;2023-09-12T21:43:40;20.30;99.90
53695;DHT22;39588;51.124;7.190;2023-09-12T21:55:50;20.00;99.90
53695;DHT22;39588;51.124;7.190;2023-09-12T21:58:15;20.00;99.90
53695;DHT22;39588;51.124;7.190;2023-09-12T22:03:08;19.90;99.90
53695;DHT22;39588;51.124;7.190;2023-09-12T22:05:35;20.00;99.90
53695;DHT22;39588;51.124;7.190;2023-09-12T22:20:13;19.70;99.90
53695;DHT22;39588;51.124;7.190;2023-09-12T22:22:45;19.70;99.90
53695;DHT22;39588;51.124;7.190;2023-09-12T22:25:11;19.70;99.90
53695;DHT22;39588;51.124;7.190;2023-09-12T22:27:38;19.60;99.90
53695;DHT22;39588;51.124;7.190;2023-09-12T22:30:08;19.60;99.90
53695;DHT22;39588;51.124;7.190;2023-09-12T22:32:34;19.50;99.90
53695;DHT22;39588;51.124;7.190;2023-09-12T22:35:00;19.50;99.90
53695;DHT22;39588;51.124;7.190;2023-09-12T22:37:26;19.40;99.90
53695;DHT22;39588;51.124;7.190;2023-09-12T22:39:51;19.30;99.90